Kent, Ohio
Current Conditions -  °F | °C
As of 11:18 AM on Thursday 30 Oct 2014 (Local Time) from KPOV Reporting Station
Overcast Overcast  
Wind Chill:   Ceiling: 3900
Heat Index:   Visibility: 10mi
Dew Point:   Wind: 6mph
Humidity: 100%   Direction: 290°WNW
Pressure: 30.12"   Gusts: NA
Location:  41.15°N, 81.36°W
Report Text: KPOV 301518Z AUTO 29005KT 10SM SCT010 OVC039 07/07 A3012 RMK AO2 T00690070
Loading
Personal Weather Stations






























Interactive Weather Map
Tropical Storm Tracking
New forecast layout! Learn more

10-Day Weather Forecast

Advertisements
Track Severe Weather on mobile